Time;durP1;ratioP1;P1;durP2;ratioP2;P2;SDS_P1;SDS_P2;PMS_P1;PMS_P2;Temp;Humidity;BMP_temperature;BMP_pressure;BME280_temperature;BME280_humidity;BME280_pressure;Samples;Min_cycle;Max_cycle;Signal;HPM_P1;HPM_P2
2022/02/21 00:01:24;;;;;;;12.53;2.20;;;8.00;99.90;;;;;;5079522;28;20206;-91
2022/02/21 00:03:54;;;;;;;8.13;1.67;;;7.80;99.90;;;;;;5079816;28;20205;-90
2022/02/21 00:06:22;;;;;;;10.30;2.20;;;7.70;99.90;;;;;;5081649;28;20206;-87
2022/02/21 00:08:50;;;;;;;10.60;1.83;;;7.60;99.90;;;;;;5083155;28;20204;-87
2022/02/21 00:11:18;;;;;;;8.23;2.10;;;7.40;99.90;;;;;;5081850;28;20197;-89
2022/02/21 00:13:47;;;;;;;12.30;2.90;;;7.40;99.90;;;;;;5081736;28;20197;-89
2022/02/21 00:16:14;;;;;;;16.80;3.37;;;7.30;99.90;;;;;;5087613;28;20217;-87
2022/02/21 00:18:44;;;;;;;7.33;2.20;;;7.30;99.90;;;;;;5088912;28;20296;-89
2022/02/21 00:21:10;;;;;;;10.63;2.40;;;7.30;99.90;;;;;;5082138;28;20194;-88
2022/02/21 00:23:37;;;;;;;6.63;1.80;;;7.40;99.90;;;;;;5079490;28;20205;-84
2022/02/21 00:26:04;;;;;;;10.33;2.50;;;7.30;99.90;;;;;;5087583;28;20208;-89
2022/02/21 00:28:33;;;;;;;16.87;2.23;;;7.30;99.90;;;;;;5089778;28;20186;-87
2022/02/21 00:31:00;;;;;;;10.07;1.90;;;7.30;99.90;;;;;;5089322;28;20210;-85
2022/02/21 00:33:33;;;;;;;9.97;2.20;;;7.20;99.90;;;;;;5091484;28;20212;-91
2022/02/21 00:36:00;;;;;;;10.80;2.57;;;7.30;99.90;;;;;;5090165;28;20252;-87
2022/02/21 00:38:27;;;;;;;5.10;1.43;;;7.30;99.90;;;;;;5086525;28;20225;-90
2022/02/21 00:41:03;;;;;;;7.90;1.70;;;7.40;99.90;;;;;;5081250;28;20205;-90
2022/02/21 00:43:30;;;;;;;6.33;1.73;;;7.50;99.90;;;;;;5081270;28;20667;-89
2022/02/21 00:46:00;;;;;;;8.47;1.73;;;7.40;99.90;;;;;;5082008;28;20197;-85
2022/02/21 00:48:39;;;;;;;11.20;2.10;;;7.30;99.90;;;;;;5089119;28;20233;-91
2022/02/21 00:51:07;;;;;;;3.20;1.30;;;7.30;99.90;;;;;;5086821;28;20615;-91
2022/02/21 00:53:40;;;;;;;5.87;1.50;;;7.30;99.90;;;;;;5085774;28;20225;-91
2022/02/21 00:56:13;;;;;;;11.27;1.97;;;7.30;99.90;;;;;;5087225;28;20565;-89
2022/02/21 00:58:39;;;;;;;5.47;1.63;;;7.40;99.90;;;;;;5087900;28;20222;-92
2022/02/21 01:01:14;;;;;;;9.23;2.20;;;7.40;99.90;;;;;;5085674;28;20675;-90
2022/02/21 01:03:42;;;;;;;8.33;1.93;;;7.30;99.90;;;;;;5083952;28;20193;-90
2022/02/21 01:06:11;;;;;;;9.37;2.33;;;7.40;99.90;;;;;;5083576;28;20244;-91
2022/02/21 01:08:38;;;;;;;11.07;2.10;;;7.30;99.90;;;;;;5083257;28;20244;-90
2022/02/21 01:11:06;;;;;;;8.25;2.25;;;7.30;99.90;;;;;;5084337;28;20424;-90
2022/02/21 01:13:33;;;;;;;8.53;2.00;;;7.20;99.90;;;;;;5081134;28;20205;-93
2022/02/21 01:16:06;;;;;;;9.97;1.93;;;7.20;99.90;;;;;;5089086;28;20210;-89
2022/02/21 01:18:38;;;;;;;7.33;1.73;;;7.20;99.90;;;;;;5085619;28;20226;-92
2022/02/21 01:21:05;;;;;;;6.23;1.53;;;7.20;99.90;;;;;;5086021;28;20213;-87
2022/02/21 01:23:35;;;;;;;6.40;2.00;;;7.10;99.90;;;;;;5088721;28;20216;-89
2022/02/21 01:26:01;;;;;;;5.77;2.00;;;7.10;99.90;;;;;;5085560;28;20232;-91
2022/02/21 01:28:32;;;;;;;5.57;1.50;;;7.00;99.90;;;;;;5087024;28;20210;-93
2022/02/21 01:30:59;;;;;;;6.33;1.90;;;7.00;99.90;;;;;;5085597;28;20209;-88
2022/02/21 01:33:28;;;;;;;9.50;2.20;;;7.00;99.90;;;;;;5080737;28;20431;-92
2022/02/21 01:35:57;;;;;;;11.07;1.90;;;7.00;99.90;;;;;;5080362;28;20720;-81
2022/02/21 01:38:23;;;;;;;14.70;2.23;;;6.90;99.90;;;;;;5082172;28;20226;-86
2022/02/21 01:40:51;;;;;;;9.40;1.80;;;7.00;99.90;;;;;;5088374;28;20202;-91
2022/02/21 01:43:18;;;;;;;5.50;2.13;;;6.90;99.90;;;;;;5088122;28;20206;-89
2022/02/21 01:45:45;;;;;;;8.87;2.03;;;6.90;99.90;;;;;;5081540;28;20226;-90
2022/02/21 01:48:12;;;;;;;6.80;1.77;;;6.90;99.90;;;;;;5079216;28;20202;-84
2022/02/21 01:50:39;;;;;;;9.33;2.03;;;7.00;99.90;;;;;;5078463;28;20208;-83
2022/02/21 01:53:07;;;;;;;6.23;1.83;;;7.00;99.90;;;;;;5080503;28;20206;-86
2022/02/21 01:55:34;;;;;;;7.00;1.80;;;7.00;99.90;;;;;;5081052;28;20198;-88
2022/02/21 01:58:03;;;;;;;11.80;2.50;;;6.90;99.90;;;;;;5079402;28;20347;-90
2022/02/21 02:00:31;;;;;;;7.70;1.97;;;6.90;99.90;;;;;;5081119;28;20197;-82
2022/02/21 02:02:59;;;;;;;8.83;1.90;;;6.80;99.90;;;;;;5076964;28;20209;-86
2022/02/21 02:05:26;;;;;;;10.37;2.27;;;6.80;99.90;;;;;;5077192;28;20190;-84
2022/02/21 02:07:54;;;;;;;11.30;1.90;;;6.70;99.90;;;;;;5076977;28;20194;-89
2022/02/21 02:10:23;;;;;;;8.87;2.00;;;6.60;99.90;;;;;;5077028;28;20206;-88
2022/02/21 02:12:50;;;;;;;8.50;2.27;;;6.60;99.90;;;;;;5076885;28;20288;-85
2022/02/21 02:15:20;;;;;;;12.23;2.30;;;6.70;99.90;;;;;;5083205;28;20206;-88
2022/02/21 02:17:51;;;;;;;8.43;1.73;;;6.60;99.90;;;;;;5084785;28;20200;-88
2022/02/21 02:20:18;;;;;;;3.70;1.30;;;6.60;99.90;;;;;;5079712;28;20202;-83
2022/02/21 02:22:47;;;;;;;8.57;2.00;;;6.60;99.90;;;;;;5075303;28;20672;-83
2022/02/21 02:25:14;;;;;;;8.20;2.20;;;6.60;99.90;;;;;;5075008;28;20209;-82
2022/02/21 02:27:42;;;;;;;9.03;2.30;;;6.60;99.90;;;;;;5075230;28;20589;-79
2022/02/21 02:30:10;;;;;;;8.13;2.67;;;6.60;99.90;;;;;;5074929;28;20557;-79
2022/02/21 02:32:38;;;;;;;9.50;2.73;;;6.60;99.90;;;;;;5074814;28;20209;-85
2022/02/21 02:35:08;;;;;;;5.90;2.10;;;6.60;99.90;;;;;;5075109;28;20228;-82
2022/02/21 02:37:35;;;;;;;5.33;1.80;;;6.50;99.90;;;;;;5074252;28;20194;-83
2022/02/21 02:40:06;;;;;;;8.57;2.20;;;6.50;99.90;;;;;;5074162;28;20447;-85
2022/02/21 02:42:33;;;;;;;8.37;2.17;;;6.50;99.90;;;;;;5074350;28;20217;-84
2022/02/21 02:45:00;;;;;;;13.00;2.10;;;6.40;99.90;;;;;;5074483;28;20209;-84
2022/02/21 02:47:27;;;;;;;9.30;1.57;;;6.30;99.90;;;;;;5074446;28;20558;-82
2022/02/21 02:49:56;;;;;;;6.37;2.10;;;6.30;99.90;;;;;;5074316;28;20198;-83
2022/02/21 02:52:25;;;;;;;8.00;2.23;;;6.30;99.90;;;;;;5074658;28;20205;-82
2022/02/21 02:54:52;;;;;;;11.23;2.23;;;6.20;99.90;;;;;;5074125;28;20581;-83
2022/02/21 02:57:20;;;;;;;8.50;1.80;;;6.20;99.90;;;;;;5073676;28;20196;-84
2022/02/21 02:59:47;;;;;;;8.87;2.20;;;6.10;99.90;;;;;;5073695;28;20236;-82
2022/02/21 03:02:13;;;;;;;12.93;2.63;;;6.20;99.90;;;;;;5074009;28;20189;-82
2022/02/21 03:04:40;;;;;;;8.03;2.00;;;6.20;99.90;;;;;;5073536;28;20211;-83
2022/02/21 03:07:07;;;;;;;13.73;2.20;;;6.20;99.90;;;;;;5073600;28;20201;-82
2022/02/21 03:09:34;;;;;;;8.87;2.63;;;6.10;99.90;;;;;;5073874;28;20206;-88
2022/02/21 03:12:02;;;;;;;15.23;2.60;;;6.20;99.90;;;;;;5074110;28;20182;-86
2022/02/21 03:14:30;;;;;;;13.03;2.30;;;6.10;99.90;;;;;;5073641;28;20620;-87
2022/02/21 03:16:58;;;;;;;10.10;3.00;;;6.20;99.90;;;;;;5073403;28;20202;-84
2022/02/21 03:19:25;;;;;;;13.10;2.93;;;6.20;99.90;;;;;;5073535;28;20327;-85
2022/02/21 03:21:54;;;;;;;18.03;3.03;;;6.10;99.90;;;;;;5077444;28;20186;-89
2022/02/21 03:24:22;;;;;;;10.53;2.33;;;6.10;99.90;;;;;;5078900;28;20245;-85
2022/02/21 03:26:50;;;;;;;13.23;3.00;;;6.10;99.90;;;;;;5078256;28;20285;-86
2022/02/21 03:29:16;;;;;;;12.73;2.50;;;6.10;99.90;;;;;;5078234;28;20208;-84
2022/02/21 03:31:47;;;;;;;12.83;3.00;;;6.10;99.90;;;;;;5078580;28;20197;-86
2022/02/21 03:34:13;;;;;;;13.80;2.90;;;6.10;99.90;;;;;;5079454;28;20216;-83
2022/02/21 03:36:42;;;;;;;15.73;2.70;;;6.10;99.90;;;;;;5078738;28;20230;-85
2022/02/21 03:39:10;;;;;;;17.67;2.87;;;6.10;99.90;;;;;;5080049;28;20236;-85
2022/02/21 03:41:37;;;;;;;8.73;2.47;;;6.10;99.90;;;;;;5080397;28;20233;-86
2022/02/21 03:44:04;;;;;;;12.73;2.40;;;6.10;99.90;;;;;;5080042;28;20657;-82
2022/02/21 03:46:36;;;;;;;16.80;3.10;;;6.20;99.90;;;;;;5079987;28;20206;-84
2022/02/21 03:49:05;;;;;;;10.73;2.23;;;6.20;99.90;;;;;;5080059;28;20215;-84
2022/02/21 03:51:32;;;;;;;10.07;2.63;;;6.20;99.90;;;;;;5078040;28;20194;-91
2022/02/21 03:53:58;;;;;;;12.47;2.53;;;6.10;99.90;;;;;;5075728;28;20207;-86
2022/02/21 03:56:28;;;;;;;10.63;2.80;;;6.10;99.90;;;;;;5078747;28;20212;-85
2022/02/21 03:58:55;;;;;;;13.23;2.97;;;6.20;99.90;;;;;;5076637;28;20225;-89
2022/02/21 04:01:23;;;;;;;14.37;3.13;;;6.20;99.90;;;;;;5076848;28;20197;-89
2022/02/21 04:03:49;;;;;;;9.57;2.50;;;6.20;99.90;;;;;;5079343;28;20563;-82
2022/02/21 04:06:18;;;;;;;6.57;2.10;;;6.20;99.90;;;;;;5077388;28;20189;-85
2022/02/21 04:08:47;;;;;;;14.77;3.07;;;6.30;99.90;;;;;;5076809;28;20193;-86
2022/02/21 04:11:19;;;;;;;12.38;3.90;;;6.30;99.90;;;;;;5077829;28;20428;-87
2022/02/21 04:13:46;;;;;;;21.17;2.93;;;6.30;99.90;;;;;;5078081;28;20206;-85
2022/02/21 04:16:13;;;;;;;12.63;2.87;;;6.30;99.90;;;;;;5075963;28;20206;-87
2022/02/21 04:18:40;;;;;;;8.57;2.40;;;6.20;99.90;;;;;;5076548;28;20704;-86
2022/02/21 04:21:07;;;;;;;6.80;2.17;;;6.20;99.90;;;;;;5074154;28;20190;-85
2022/02/21 04:23:35;;;;;;;9.33;1.60;;;6.20;99.90;;;;;;5074077;28;20689;-81
2022/02/21 04:26:03;;;;;;;5.73;2.20;;;6.30;99.90;;;;;;5073883;28;20213;-89
2022/02/21 04:28:30;;;;;;;11.13;2.10;;;6.30;99.90;;;;;;5073928;28;20208;-87
2022/02/21 04:30:57;;;;;;;8.03;2.20;;;6.30;99.90;;;;;;5074516;28;20197;-83
2022/02/21 04:33:25;;;;;;;9.70;2.90;;;6.30;99.90;;;;;;5073786;28;20428;-83
2022/02/21 04:35:52;;;;;;;9.97;2.50;;;6.30;99.90;;;;;;5073772;28;20229;-87
2022/02/21 04:38:18;;;;;;;8.23;1.90;;;6.30;99.90;;;;;;5070945;28;20207;-85
2022/02/21 04:40:48;;;;;;;9.63;2.20;;;6.30;99.90;;;;;;5056911;28;20217;-90
2022/02/21 04:43:16;;;;;;;6.77;2.03;;;6.30;99.90;;;;;;5058403;28;20600;-91
2022/02/21 04:45:43;;;;;;;8.30;2.07;;;6.20;99.90;;;;;;5057457;28;20214;-89
2022/02/21 04:48:10;;;;;;;11.37;2.10;;;6.20;99.90;;;;;;5057208;28;20207;-91
2022/02/21 04:50:40;;;;;;;7.57;1.77;;;6.00;99.90;;;;;;5061959;28;20194;-87
2022/02/21 04:53:09;;;;;;;6.97;1.67;;;6.00;99.90;;;;;;5054782;28;20609;-92
2022/02/21 04:55:36;;;;;;;11.95;3.60;;;6.00;99.90;;;;;;5052523;28;20951;-92
2022/02/21 04:58:04;;;;;;;10.63;2.03;;;6.00;99.90;;;;;;5056096;28;20566;-89
2022/02/21 05:00:31;;;;;;;14.87;2.30;;;6.00;99.90;;;;;;5056281;28;20236;-89
2022/02/21 05:02:58;;;;;;;4.87;1.87;;;5.90;99.90;;;;;;5059492;28;20194;-91
2022/02/21 05:05:28;;;;;;;7.43;1.70;;;5.90;99.90;;;;;;5058530;28;20202;-90
2022/02/21 05:07:56;;;;;;;5.87;1.40;;;5.80;99.90;;;;;;5060728;28;20199;-93
2022/02/21 05:10:26;;;;;;;9.07;1.53;;;5.80;99.90;;;;;;5062812;28;20552;-89
2022/02/21 05:12:56;;;;;;;4.13;1.57;;;5.80;99.90;;;;;;5062364;28;20560;-91
2022/02/21 05:15:27;;;;;;;10.27;1.50;;;5.70;99.90;;;;;;5060679;28;20201;-91
2022/02/21 05:17:55;;;;;;;7.30;2.45;;;5.70;99.90;;;;;;5060212;28;20457;-88
2022/02/21 05:20:23;;;;;;;7.87;1.67;;;5.70;99.90;;;;;;5060021;28;20575;-90
2022/02/21 05:22:50;;;;;;;7.03;1.87;;;5.70;99.90;;;;;;5060835;28;20214;-91
2022/02/21 05:25:16;;;;;;;8.33;2.10;;;5.50;99.90;;;;;;5059428;28;20218;-91
2022/02/21 05:27:46;;;;;;;7.90;1.43;;;5.50;99.90;;;;;;5057872;28;20206;-92
2022/02/21 05:30:16;;;;;;;8.47;1.70;;;5.50;99.90;;;;;;5057971;28;20206;-91
2022/02/21 05:32:50;;;;;;;10.37;1.90;;;5.50;99.90;;;;;;5059665;28;20203;-91
2022/02/21 05:35:23;;;;;;;4.73;1.47;;;5.40;99.90;;;;;;5057696;28;20459;-90
2022/02/21 05:37:50;;;;;;;7.73;1.90;;;5.40;99.90;;;;;;5056427;28;20434;-84
2022/02/21 05:40:18;;;;;;;8.25;2.47;;;5.40;99.90;;;;;;5054729;28;20441;-82
2022/02/21 05:42:47;;;;;;;9.40;2.30;;;5.40;99.90;;;;;;5055759;28;20190;-86
2022/02/21 05:45:17;;;;;;;7.20;2.10;;;5.40;99.90;;;;;;5057335;28;20704;-91
2022/02/21 05:47:51;;;;;;;8.33;1.90;;;5.30;99.90;;;;;;5065174;28;20448;-92
2022/02/21 05:50:18;;;;;;;10.10;1.97;;;5.30;99.90;;;;;;5061916;28;20442;-90
2022/02/21 05:52:46;;;;;;;11.40;1.70;;;5.30;99.90;;;;;;5066003;28;20431;-90
2022/02/21 05:55:12;;;;;;;10.50;1.87;;;5.20;99.90;;;;;;5061349;28;20443;-92
2022/02/21 05:57:40;;;;;;;9.97;2.10;;;5.20;99.90;;;;;;5065931;28;20447;-93
2022/02/21 06:00:13;;;;;;;6.57;2.27;;;5.20;99.90;;;;;;5062979;28;20487;-91
2022/02/21 06:02:47;;;;;;;8.82;2.85;;;5.20;99.90;;;;;;5080982;28;20434;-88
2022/02/21 06:05:15;;;;;;;11.37;2.33;;;5.30;99.90;;;;;;5079947;28;20213;-92
2022/02/21 06:07:47;;;;;;;9.03;1.97;;;5.20;99.90;;;;;;5081824;28;20209;-90
2022/02/21 06:10:20;;;;;;;8.00;2.07;;;5.20;99.90;;;;;;5080375;28;20220;-91
2022/02/21 06:12:48;;;;;;;8.70;2.00;;;5.20;99.90;;;;;;5081695;28;20206;-89
2022/02/21 06:15:17;;;;;;;10.73;1.70;;;5.20;99.90;;;;;;5085752;28;20858;-90
2022/02/21 06:17:44;;;;;;;14.67;2.40;;;5.10;99.90;;;;;;5087515;28;20451;-90
2022/02/21 06:20:16;;;;;;;9.00;2.20;;;5.30;99.90;;;;;;5085703;28;20229;-88
2022/02/21 06:22:42;;;;;;;8.17;1.80;;;5.10;99.90;;;;;;5084242;28;20473;-87
2022/02/21 06:25:10;;;;;;;10.38;3.17;;;5.10;99.90;;;;;;5078450;28;20450;-93
2022/02/21 06:27:37;;;;;;;10.13;2.17;;;5.20;99.90;;;;;;5079002;28;20198;-91
2022/02/21 06:30:10;;;;;;;9.10;2.23;;;5.10;99.90;;;;;;5081500;28;20449;-91
2022/02/21 06:32:38;;;;;;;13.13;2.30;;;5.20;99.90;;;;;;5079876;28;20423;-92
2022/02/21 06:35:07;;;;;;;11.17;2.33;;;5.10;99.90;;;;;;5078880;28;20465;-89
2022/02/21 06:38:00;;;;;;;6.80;1.63;;;5.10;99.90;;;;;;5081088;28;20531;-91
2022/02/21 06:40:33;;;;;;;7.77;1.50;;;5.10;99.90;;;;;;5078948;28;20490;-88
2022/02/21 06:43:01;;;;;;;8.93;1.90;;;5.10;99.90;;;;;;5080786;28;20498;-91
2022/02/21 06:45:29;;;;;;;8.20;2.30;;;5.10;99.90;;;;;;5078512;28;20435;-93
2022/02/21 06:47:57;;;;;;;10.40;2.83;;;5.10;99.90;;;;;;5077508;28;20428;-91
2022/02/21 06:50:25;;;;;;;10.47;2.17;;;5.20;99.90;;;;;;5082567;28;20548;-91
2022/02/21 06:52:54;;;;;;;9.33;2.00;;;5.20;99.90;;;;;;5078486;28;20790;-93
2022/02/21 06:55:26;;;;;;;7.73;2.30;;;5.10;99.90;;;;;;5077508;28;20443;-91
2022/02/21 06:57:54;;;;;;;9.43;1.90;;;5.10;99.90;;;;;;5083139;28;20449;-92
2022/02/21 07:00:21;;;;;;;10.93;2.23;;;5.10;99.90;;;;;;5083394;28;20516;-87
2022/02/21 07:02:48;;;;;;;7.47;1.67;;;5.10;99.90;;;;;;5082872;28;20435;-93
2022/02/21 07:05:16;;;;;;;9.53;2.00;;;5.10;99.90;;;;;;5079065;28;20438;-89
2022/02/21 07:07:45;;;;;;;16.90;2.33;;;5.20;99.90;;;;;;5070023;28;20675;-93
2022/02/21 07:10:15;;;;;;;8.93;2.60;;;5.20;99.90;;;;;;5074397;28;20411;-91
2022/02/21 07:12:46;;;;;;;10.43;2.53;;;5.30;99.90;;;;;;5076405;28;20197;-91
2022/02/21 07:15:13;;;;;;;5.37;1.67;;;5.30;99.90;;;;;;5076100;28;20202;-90
2022/02/21 07:17:43;;;;;;;8.40;1.80;;;5.20;99.90;;;;;;5076016;28;20193;-92
2022/02/21 07:20:12;;;;;;;6.10;1.90;;;5.30;99.90;;;;;;5075309;28;20221;-91
2022/02/21 07:22:41;;;;;;;13.57;2.77;;;5.30;99.90;;;;;;5074690;28;20673;-90
2022/02/21 07:25:16;;;;;;;8.03;2.00;;;5.40;99.90;;;;;;5075935;28;20613;-90
2022/02/21 07:27:54;;;;;;;12.13;2.17;;;5.40;99.90;;;;;;5075120;28;20197;-90
2022/02/21 07:30:30;;;;;;;6.47;1.80;;;5.40;99.90;;;;;;5073362;28;20434;-91
2022/02/21 07:32:57;;;;;;;8.83;2.50;;;5.50;99.90;;;;;;5076244;28;20198;-81
2022/02/21 07:35:30;;;;;;;5.20;1.90;;;5.60;99.90;;;;;;5074046;28;20467;-88
2022/02/21 07:38:04;;;;;;;6.57;1.83;;;5.60;99.90;;;;;;5073912;28;20202;-90
2022/02/21 07:40:30;;;;;;;11.63;1.97;;;5.70;99.90;;;;;;5073652;28;20221;-87
2022/02/21 07:42:58;;;;;;;8.53;2.17;;;5.70;99.90;;;;;;5073782;28;20190;-77
2022/02/21 07:45:31;;;;;;;10.00;2.40;;;5.70;99.90;;;;;;5073587;28;20209;-85
2022/02/21 07:48:00;;;;;;;10.63;2.57;;;5.80;99.90;;;;;;5073949;28;20230;-91
2022/02/21 07:50:30;;;;;;;11.57;2.00;;;5.90;99.90;;;;;;5074328;28;20216;-89
2022/02/21 07:52:57;;;;;;;11.27;2.13;;;5.90;99.90;;;;;;5074289;28;20209;-82
2022/02/21 07:55:24;;;;;;;12.60;3.27;;;6.00;99.90;;;;;;5072285;28;20423;-80
2022/02/21 07:57:52;;;;;;;12.90;2.10;;;6.20;99.90;;;;;;5073213;28;20504;-78
2022/02/21 08:00:21;;;;;;;11.60;2.90;;;6.20;99.90;;;;;;5072747;28;20233;-83
2022/02/21 08:02:48;;;;;;;13.90;3.27;;;6.20;99.90;;;;;;5073400;28;20202;-76
2022/02/21 08:05:15;;;;;;;13.33;2.90;;;6.20;99.90;;;;;;5072929;28;20201;-81
2022/02/21 08:07:42;;;;;;;11.27;2.17;;;6.20;99.90;;;;;;5073142;28;20202;-79
2022/02/21 08:10:10;;;;;;;11.10;2.10;;;6.20;99.90;;;;;;5070073;28;20197;-78
2022/02/21 08:12:37;;;;;;;18.93;2.67;;;6.20;99.90;;;;;;5072655;28;20198;-75
2022/02/21 08:15:04;;;;;;;10.47;2.60;;;6.30;99.90;;;;;;5072234;28;20205;-81
2022/02/21 08:17:39;;;;;;;8.77;2.67;;;6.30;99.90;;;;;;5072924;28;20209;-87
2022/02/21 08:20:07;;;;;;;17.83;3.13;;;6.40;99.90;;;;;;5072662;28;20729;-84
2022/02/21 08:22:34;;;;;;;14.40;2.70;;;6.40;99.90;;;;;;5072678;28;20206;-84
2022/02/21 08:25:01;;;;;;;12.07;2.87;;;6.50;99.90;;;;;;5072875;28;20553;-85
2022/02/21 08:27:27;;;;;;;12.90;2.23;;;6.50;99.90;;;;;;5072247;28;20540;-84
2022/02/21 08:29:55;;;;;;;14.50;3.30;;;6.50;99.90;;;;;;5071749;28;20210;-87
2022/02/21 08:32:22;;;;;;;15.17;3.50;;;6.50;99.90;;;;;;5071600;28;20197;-80
2022/02/21 08:34:50;;;;;;;15.63;3.07;;;6.50;99.90;;;;;;5072516;28;20664;-75
2022/02/21 08:37:18;;;;;;;10.67;3.13;;;6.50;99.90;;;;;;5075831;28;20204;-80
2022/02/21 08:39:45;;;;;;;18.88;3.85;;;6.60;99.90;;;;;;5067314;28;20427;-80
2022/02/21 08:42:11;;;;;;;19.53;3.33;;;6.50;99.90;;;;;;5076524;28;20190;-77
2022/02/21 08:44:38;;;;;;;15.03;3.47;;;6.50;99.90;;;;;;5068714;28;20196;-88
2022/02/21 08:47:06;;;;;;;10.97;2.77;;;6.40;99.90;;;;;;5076175;28;20208;-84
2022/02/21 08:49:33;;;;;;;16.17;2.87;;;6.30;99.90;;;;;;5075891;28;20206;-80
2022/02/21 08:52:01;;;;;;;22.43;3.57;;;6.40;99.90;;;;;;5075679;28;20203;-75
2022/02/21 08:54:28;;;;;;;14.97;3.43;;;6.40;99.90;;;;;;5072296;28;20202;-77
2022/02/21 08:56:55;;;;;;;18.97;3.60;;;6.40;99.90;;;;;;5075472;28;20212;-83
2022/02/21 08:59:21;;;;;;;10.93;2.67;;;6.40;99.90;;;;;;5075392;28;20202;-76
2022/02/21 09:01:51;;;;;;;13.83;2.30;;;6.40;99.90;;;;;;5075771;28;20218;-85
2022/02/21 09:04:24;;;;;;;11.23;2.50;;;6.50;99.90;;;;;;5077679;28;20201;-88
2022/02/21 09:06:53;;;;;;;16.43;3.27;;;6.50;99.90;;;;;;5078913;28;20564;-84
2022/02/21 09:09:22;;;;;;;18.50;3.10;;;6.60;99.90;;;;;;5077402;28;20194;-88
2022/02/21 09:11:55;;;;;;;16.33;4.22;;;6.70;99.90;;;;;;5077792;28;20463;-86
2022/02/21 09:14:23;;;;;;;17.50;3.70;;;6.80;99.90;;;;;;5077864;28;20194;-89
2022/02/21 09:17:06;;;;;;;15.47;3.23;;;6.90;99.90;;;;;;5078516;28;20205;-86
2022/02/21 09:19:33;;;;;;;16.17;3.27;;;7.00;99.90;;;;;;5078550;28;20202;-86
2022/02/21 09:22:00;;;;;;;25.30;4.10;;;7.10;99.90;;;;;;5077269;28;20220;-89
2022/02/21 09:24:36;;;;;;;17.13;3.73;;;7.10;99.90;;;;;;5076801;28;20489;-90
2022/02/21 09:27:09;;;;;;;17.00;3.47;;;7.20;99.90;;;;;;5078843;28;20194;-84
2022/02/21 09:29:42;;;;;;;15.93;3.50;;;7.30;99.90;;;;;;5080116;28;20277;-86
2022/02/21 09:32:09;;;;;;;12.93;2.93;;;7.30;99.90;;;;;;5077456;28;20672;-88
2022/02/21 09:34:40;;;;;;;21.07;4.20;;;7.30;99.90;;;;;;5077476;28;20201;-86
2022/02/21 09:37:07;;;;;;;18.57;4.10;;;7.40;99.90;;;;;;5078494;28;20314;-85
2022/02/21 09:39:36;;;;;;;16.90;2.97;;;7.40;99.90;;;;;;5078725;28;20198;-89
2022/02/21 09:42:04;;;;;;;15.37;3.40;;;7.50;99.90;;;;;;5075245;28;20232;-85
2022/02/21 09:44:37;;;;;;;19.90;4.10;;;7.50;99.90;;;;;;5078817;28;20202;-91
2022/02/21 09:47:06;;;;;;;19.20;4.87;;;7.60;99.90;;;;;;5084158;28;20190;-92
2022/02/21 09:49:45;;;;;;;20.80;4.63;;;7.60;99.90;;;;;;5082050;28;20198;-92
2022/02/21 09:52:12;;;;;;;22.67;4.33;;;7.60;99.90;;;;;;5085860;28;20216;-88
2022/02/21 09:54:43;;;;;;;13.47;3.53;;;7.80;99.90;;;;;;5081433;28;20212;-90
2022/02/21 09:57:15;;;;;;;20.57;5.20;;;7.60;99.90;;;;;;5076235;28;20645;-83
2022/02/21 09:59:45;;;;;;;20.83;4.68;;;7.60;99.90;;;;;;5078384;28;20428;-88
2022/02/21 10:02:23;;;;;;;26.10;5.07;;;7.50;99.90;;;;;;5081572;28;20221;-83
2022/02/21 10:05:09;;;;;;;21.37;4.20;;;7.60;99.90;;;;;;5085332;28;20205;-88
2022/02/21 10:07:39;;;;;;;14.97;3.63;;;7.80;99.90;;;;;;5084757;28;20667;-88
2022/02/21 10:10:12;;;;;;;18.67;4.10;;;7.90;99.90;;;;;;5076097;28;20201;-81
2022/02/21 10:12:51;;;;;;;24.73;4.27;;;7.90;99.90;;;;;;5082889;28;20190;-86
2022/02/21 10:15:21;;;;;;;19.83;4.23;;;8.00;99.90;;;;;;5071947;28;20698;-84
2022/02/21 10:17:50;;;;;;;16.07;4.00;;;8.00;99.90;;;;;;5069544;28;20194;-89
2022/02/21 10:20:20;;;;;;;21.80;5.37;;;8.10;99.90;;;;;;5080741;28;20218;-86
2022/02/21 10:23:02;;;;;;;19.87;3.83;;;8.20;99.90;;;;;;5083435;28;20669;-86
2022/02/21 10:25:31;;;;;;;21.03;3.87;;;8.30;99.90;;;;;;5079602;28;20672;-89
2022/02/21 10:28:05;;;;;;;17.53;4.37;;;8.40;99.90;;;;;;5080177;28;20665;-88
2022/02/21 10:30:37;;;;;;;22.17;4.83;;;8.40;99.90;;;;;;5079736;28;20285;-90
2022/02/21 10:33:13;;;;;;;17.37;4.37;;;8.40;99.90;;;;;;5075912;28;20194;-86
2022/02/21 10:35:46;;;;;;;28.15;6.05;;;8.20;99.90;;;;;;5074959;28;20432;-89
2022/02/21 10:38:14;;;;;;;25.43;5.37;;;8.10;99.90;;;;;;5075877;28;20205;-89
2022/02/21 10:40:45;;;;;;;21.03;4.47;;;8.00;99.90;;;;;;5076049;28;20225;-85
2022/02/21 10:43:15;;;;;;;25.33;4.73;;;7.90;99.90;;;;;;5059056;28;20646;-93
2022/02/21 10:45:48;;;;;;;21.90;4.20;;;7.80;99.90;;;;;;5060806;28;20206;-85
2022/02/21 10:48:21;;;;;;;22.77;4.57;;;7.70;99.90;;;;;;5066670;28;20225;-91
2022/02/21 10:50:55;;;;;;;23.23;4.93;;;7.60;99.90;;;;;;5079704;28;20220;-83
2022/02/21 10:53:37;;;;;;;21.23;5.22;;;7.50;99.90;;;;;;5070953;28;20431;-89
2022/02/21 10:56:06;;;;;;;23.83;4.80;;;7.40;99.90;;;;;;5076702;28;20206;-85
2022/02/21 10:58:33;;;;;;;23.93;4.97;;;7.30;99.90;;;;;;5074280;28;20201;-85
2022/02/21 11:01:01;;;;;;;18.07;4.03;;;7.30;99.90;;;;;;5073770;28;20217;-84
2022/02/21 11:03:30;;;;;;;26.13;6.00;;;7.20;99.90;;;;;;5075861;28;20202;-83
2022/02/21 11:05:59;;;;;;;25.27;4.43;;;7.10;99.90;;;;;;5075111;28;20209;-86
2022/02/21 11:08:29;;;;;;;29.30;5.03;;;7.10;99.90;;;;;;5054536;28;20195;-84
2022/02/21 11:11:00;;;;;;;22.43;4.77;;;7.00;99.90;;;;;;5055811;28;20646;-88
2022/02/21 11:13:34;;;;;;;33.00;7.55;;;7.00;99.90;;;;;;5053661;28;20436;-91
2022/02/21 11:16:02;;;;;;;28.87;5.07;;;7.00;99.90;;;;;;5066479;28;20193;-83
2022/02/21 11:18:30;;;;;;;26.80;5.40;;;7.00;99.90;;;;;;5074419;28;20202;-85
2022/02/21 11:20:58;;;;;;;22.10;4.57;;;7.00;99.90;;;;;;5073546;28;20218;-85
2022/02/21 11:23:26;;;;;;;34.90;6.07;;;7.00;99.90;;;;;;5073792;28;20209;-88
2022/02/21 11:25:59;;;;;;;27.07;5.20;;;7.00;99.90;;;;;;5073385;28;20202;-83
2022/02/21 11:28:31;;;;;;;34.40;7.00;;;7.00;99.90;;;;;;5074653;28;20431;-90
2022/02/21 11:31:03;;;;;;;27.43;6.13;;;7.10;99.90;;;;;;5055489;28;20209;-86
2022/02/21 11:33:31;;;;;;;24.70;6.13;;;7.10;99.90;;;;;;5055093;28;20198;-91
2022/02/21 11:36:03;;;;;;;29.50;6.10;;;7.20;99.90;;;;;;5054379;28;20230;-85
2022/02/21 11:38:33;;;;;;;24.80;6.27;;;7.20;99.90;;;;;;5054457;28;20658;-84
2022/02/21 11:41:05;;;;;;;29.17;5.13;;;7.20;99.90;;;;;;5055254;28;20218;-81
2022/02/21 11:43:35;;;;;;;32.10;5.93;;;7.30;99.90;;;;;;5055736;28;20209;-84
2022/02/21 11:46:06;;;;;;;33.05;7.70;;;7.40;99.90;;;;;;5056099;28;20422;-88
2022/02/21 11:48:56;;;;;;;29.23;6.13;;;7.50;99.90;;;;;;5067799;28;20205;-88
2022/02/21 11:51:41;;;;;;;40.70;7.23;;;7.50;99.90;;;;;;5074133;28;20198;-82
2022/02/21 11:54:39;;;;;;;39.87;6.93;;;7.60;99.90;;;;;;5074767;28;20197;-82
2022/02/21 11:57:09;;;;;;;23.20;5.37;;;7.60;99.90;;;;;;5071534;28;20206;-82
2022/02/21 11:59:36;;;;;;;29.63;6.37;;;7.60;99.90;;;;;;5073644;28;20232;-87
2022/02/21 12:02:12;;;;;;;30.40;6.23;;;7.70;99.90;;;;;;5079652;28;20237;-85
2022/02/21 12:04:56;;;;;;;27.43;4.70;;;7.60;99.90;;;;;;5078698;28;20201;-83
2022/02/21 12:07:27;;;;;;;16.77;4.87;;;7.70;99.90;;;;;;5077743;28;20243;-88
2022/02/21 12:10:24;;;;;;;22.20;4.53;;;7.80;99.90;;;;;;5077223;28;20206;-84
2022/02/21 12:12:57;;;;;;;23.47;4.40;;;7.90;99.90;;;;;;5080767;28;20292;-82
2022/02/21 12:15:27;;;;;;;23.67;4.70;;;8.00;99.90;;;;;;5080959;28;20186;-84
2022/02/21 12:18:43;;;;;;;28.40;6.17;;;8.20;99.90;;;;;;5083126;28;20198;-90
2022/02/21 12:21:15;;;;;;;20.23;4.53;;;8.30;99.90;;;;;;5079730;28;20229;-86
2022/02/21 12:24:14;;;;;;;20.10;4.80;;;8.30;99.90;;;;;;5039153;28;1087330;-86
2022/02/21 12:26:44;;;;;;;21.53;4.87;;;8.30;99.90;;;;;;5019783;28;20200;-83
2022/02/21 12:29:13;;;;;;;27.70;4.57;;;8.20;99.90;;;;;;5017938;28;20254;-86
2022/02/21 12:31:43;;;;;;;26.27;4.87;;;8.10;99.90;;;;;;5045080;28;20202;-83
2022/02/21 12:34:10;;;;;;;20.20;4.70;;;8.00;99.90;;;;;;5078049;28;20489;-85
2022/02/21 12:36:42;;;;;;;19.80;4.20;;;8.00;99.90;;;;;;5080315;28;20226;-90
2022/02/21 12:39:11;;;;;;;24.37;4.10;;;8.10;99.90;;;;;;5080989;28;20224;-87
2022/02/21 12:41:41;;;;;;;20.67;4.17;;;8.10;99.90;;;;;;5082269;28;20230;-79
2022/02/21 12:44:09;;;;;;;16.13;4.03;;;8.20;99.90;;;;;;5078551;28;20206;-92
2022/02/21 12:46:39;;;;;;;21.67;3.87;;;8.40;99.90;;;;;;5079971;28;20201;-90
2022/02/21 12:49:08;;;;;;;20.07;3.63;;;8.40;99.90;;;;;;5078979;28;20346;-87
2022/02/21 12:51:36;;;;;;;21.10;5.60;;;8.40;99.90;;;;;;5080002;28;20427;-87
2022/02/21 12:54:07;;;;;;;18.00;3.60;;;8.60;99.90;;;;;;5078680;28;20301;-86
2022/02/21 12:56:46;;;;;;;16.13;3.77;;;8.80;99.90;;;;;;5076287;28;20273;-87
2022/02/21 12:59:14;;;;;;;28.63;4.67;;;9.00;99.90;;;;;;5078511;28;20198;-89
2022/02/21 13:01:41;;;;;;;21.23;4.10;;;9.00;99.90;;;;;;5080919;28;20244;-82
2022/02/21 13:04:14;;;;;;;17.97;4.20;;;9.20;99.90;;;;;;5080166;28;20216;-84